Nashville, Tennessee
Traffic Map
Current Weather Conditions
Nashville, Tennessee
Few Clouds Light Fog
Few Clouds

Feels Like: 7°
Wind Chill: Ceiling: Unl
Heat Index: Visibility: 10mi
Dew Point: Wind: 0mph
Humidity: 86% Direction: ° ()
Pressure: 30.23in Gusts: 0mph
Raw Report DataKBNA 231253Z 00000KT 10SM BCFG FEW200 07/05 A3023 RMK AO2 SLP237 BCFG E T00720050
Traffic Incident Summary
Active as of:
Severity:
Category:
InformationThere was an issue retrieving the traffic information for this location. Please try a different location or try again shortly.
Advertisements
Track Severe Weather on mobile